sensor_id;sensor_type;location;lat;lon;timestamp;P1;durP1;ratioP1;P2;durP2;ratioP2
3849;SDS011;1940;51.052;13.678;2023-11-21T00:00:44;1.37;;;1.10;;
3849;SDS011;1940;51.052;13.678;2023-11-21T00:03:10;2.07;;;1.57;;
3849;SDS011;1940;51.052;13.678;2023-11-21T00:05:39;2.00;;;1.40;;
3849;SDS011;1940;51.052;13.678;2023-11-21T00:08:06;1.73;;;1.47;;
3849;SDS011;1940;51.052;13.678;2023-11-21T00:10:33;2.20;;;1.57;;
3849;SDS011;1940;51.052;13.678;2023-11-21T00:12:59;2.77;;;1.90;;
3849;SDS011;1940;51.052;13.678;2023-11-21T00:15:24;2.30;;;1.63;;
3849;SDS011;1940;51.052;13.678;2023-11-21T00:17:51;4.43;;;1.83;;
3849;SDS011;1940;51.052;13.678;2023-11-21T00:20:17;3.90;;;1.90;;
3849;SDS011;1940;51.052;13.678;2023-11-21T00:22:42;2.87;;;1.87;;
3849;SDS011;1940;51.052;13.678;2023-11-21T00:25:08;2.53;;;1.93;;
3849;SDS011;1940;51.052;13.678;2023-11-21T00:27:34;2.80;;;2.07;;
3849;SDS011;1940;51.052;13.678;2023-11-21T00:30:03;2.43;;;1.70;;
3849;SDS011;1940;51.052;13.678;2023-11-21T00:32:30;2.87;;;1.80;;
3849;SDS011;1940;51.052;13.678;2023-11-21T00:34:56;2.40;;;1.60;;
3849;SDS011;1940;51.052;13.678;2023-11-21T00:37:21;4.60;;;2.00;;
3849;SDS011;1940;51.052;13.678;2023-11-21T00:39:47;4.70;;;2.40;;
3849;SDS011;1940;51.052;13.678;2023-11-21T00:42:12;6.60;;;2.37;;
3849;SDS011;1940;51.052;13.678;2023-11-21T00:44:38;2.10;;;1.87;;
3849;SDS011;1940;51.052;13.678;2023-11-21T00:47:04;2.07;;;1.77;;
3849;SDS011;1940;51.052;13.678;2023-11-21T00:49:30;2.53;;;1.53;;
3849;SDS011;1940;51.052;13.678;2023-11-21T00:51:55;2.57;;;1.77;;
3849;SDS011;1940;51.052;13.678;2023-11-21T00:54:23;3.43;;;1.70;;
3849;SDS011;1940;51.052;13.678;2023-11-21T00:56:48;3.57;;;2.00;;
3849;SDS011;1940;51.052;13.678;2023-11-21T00:59:14;2.60;;;1.80;;
3849;SDS011;1940;51.052;13.678;2023-11-21T01:01:39;2.90;;;1.83;;
3849;SDS011;1940;51.052;13.678;2023-11-21T01:04:05;2.00;;;1.60;;
3849;SDS011;1940;51.052;13.678;2023-11-21T01:06:31;3.70;;;1.80;;
3849;SDS011;1940;51.052;13.678;2023-11-21T01:08:57;3.50;;;1.70;;
3849;SDS011;1940;51.052;13.678;2023-11-21T01:11:23;2.73;;;2.00;;
3849;SDS011;1940;51.052;13.678;2023-11-21T01:13:48;4.33;;;2.00;;
3849;SDS011;1940;51.052;13.678;2023-11-21T01:16:14;2.20;;;1.90;;
3849;SDS011;1940;51.052;13.678;2023-11-21T01:18:39;4.07;;;2.00;;
3849;SDS011;1940;51.052;13.678;2023-11-21T01:21:05;2.63;;;1.93;;
3849;SDS011;1940;51.052;13.678;2023-11-21T01:23:32;1.97;;;1.77;;
3849;SDS011;1940;51.052;13.678;2023-11-21T01:25:58;2.67;;;1.93;;
3849;SDS011;1940;51.052;13.678;2023-11-21T01:28:23;5.20;;;2.17;;
3849;SDS011;1940;51.052;13.678;2023-11-21T01:30:49;2.80;;;1.50;;
3849;SDS011;1940;51.052;13.678;2023-11-21T01:33:14;3.10;;;2.13;;
3849;SDS011;1940;51.052;13.678;2023-11-21T01:35:40;3.90;;;2.23;;
3849;SDS011;1940;51.052;13.678;2023-11-21T01:38:06;3.63;;;1.57;;
3849;SDS011;1940;51.052;13.678;2023-11-21T01:40:33;2.53;;;1.60;;
3849;SDS011;1940;51.052;13.678;2023-11-21T01:42:59;2.63;;;1.90;;
3849;SDS011;1940;51.052;13.678;2023-11-21T01:45:24;4.97;;;2.23;;
3849;SDS011;1940;51.052;13.678;2023-11-21T01:47:50;4.07;;;1.83;;
3849;SDS011;1940;51.052;13.678;2023-11-21T01:50:16;5.80;;;2.20;;
3849;SDS011;1940;51.052;13.678;2023-11-21T01:52:46;6.20;;;2.17;;
3849;SDS011;1940;51.052;13.678;2023-11-21T01:55:12;3.90;;;2.30;;
3849;SDS011;1940;51.052;13.678;2023-11-21T01:57:43;5.20;;;2.40;;
3849;SDS011;1940;51.052;13.678;2023-11-21T02:00:09;3.40;;;2.37;;
3849;SDS011;1940;51.052;13.678;2023-11-21T02:02:43;5.83;;;2.33;;
3849;SDS011;1940;51.052;13.678;2023-11-21T02:05:13;4.40;;;2.00;;
3849;SDS011;1940;51.052;13.678;2023-11-21T02:07:40;3.77;;;2.30;;
3849;SDS011;1940;51.052;13.678;2023-11-21T02:10:07;3.30;;;2.00;;
3849;SDS011;1940;51.052;13.678;2023-11-21T02:12:34;4.30;;;2.60;;
3849;SDS011;1940;51.052;13.678;2023-11-21T02:15:00;2.83;;;1.90;;
3849;SDS011;1940;51.052;13.678;2023-11-21T02:17:30;3.70;;;2.30;;
3849;SDS011;1940;51.052;13.678;2023-11-21T02:19:57;3.80;;;2.10;;
3849;SDS011;1940;51.052;13.678;2023-11-21T02:22:23;4.67;;;2.17;;
3849;SDS011;1940;51.052;13.678;2023-11-21T02:24:51;3.57;;;1.87;;
3849;SDS011;1940;51.052;13.678;2023-11-21T02:27:17;3.63;;;1.80;;
3849;SDS011;1940;51.052;13.678;2023-11-21T02:29:46;4.97;;;2.30;;
3849;SDS011;1940;51.052;13.678;2023-11-21T02:32:12;5.17;;;2.03;;
3849;SDS011;1940;51.052;13.678;2023-11-21T02:34:38;3.17;;;2.00;;
3849;SDS011;1940;51.052;13.678;2023-11-21T02:37:04;3.70;;;1.90;;
3849;SDS011;1940;51.052;13.678;2023-11-21T02:39:30;11.93;;;2.07;;
3849;SDS011;1940;51.052;13.678;2023-11-21T02:45:03;5.20;;;1.90;;
3849;SDS011;1940;51.052;13.678;2023-11-21T02:47:30;4.50;;;2.23;;
3849;SDS011;1940;51.052;13.678;2023-11-21T02:49:55;5.87;;;2.40;;
3849;SDS011;1940;51.052;13.678;2023-11-21T02:52:21;3.10;;;1.90;;
3849;SDS011;1940;51.052;13.678;2023-11-21T02:54:46;3.77;;;2.13;;
3849;SDS011;1940;51.052;13.678;2023-11-21T02:57:12;7.90;;;2.20;;
3849;SDS011;1940;51.052;13.678;2023-11-21T02:59:38;3.50;;;1.97;;
3849;SDS011;1940;51.052;13.678;2023-11-21T03:02:04;4.90;;;2.30;;
3849;SDS011;1940;51.052;13.678;2023-11-21T03:04:29;6.30;;;2.37;;
3849;SDS011;1940;51.052;13.678;2023-11-21T03:06:57;2.93;;;2.00;;
3849;SDS011;1940;51.052;13.678;2023-11-21T03:09:23;4.00;;;2.27;;
3849;SDS011;1940;51.052;13.678;2023-11-21T03:11:48;4.87;;;2.13;;
3849;SDS011;1940;51.052;13.678;2023-11-21T03:14:14;3.77;;;1.50;;
3849;SDS011;1940;51.052;13.678;2023-11-21T03:16:39;3.77;;;2.10;;
3849;SDS011;1940;51.052;13.678;2023-11-21T03:19:06;6.17;;;2.27;;
3849;SDS011;1940;51.052;13.678;2023-11-21T03:21:33;4.47;;;2.17;;
3849;SDS011;1940;51.052;13.678;2023-11-21T03:23:58;7.30;;;2.30;;
3849;SDS011;1940;51.052;13.678;2023-11-21T03:26:25;4.67;;;2.00;;
3849;SDS011;1940;51.052;13.678;2023-11-21T03:28:50;6.13;;;2.63;;
3849;SDS011;1940;51.052;13.678;2023-11-21T03:31:18;2.87;;;1.90;;
3849;SDS011;1940;51.052;13.678;2023-11-21T03:33:44;4.80;;;2.33;;
3849;SDS011;1940;51.052;13.678;2023-11-21T03:36:10;4.73;;;2.10;;
3849;SDS011;1940;51.052;13.678;2023-11-21T03:38:36;5.57;;;2.20;;
3849;SDS011;1940;51.052;13.678;2023-11-21T03:41:02;5.73;;;2.23;;
3849;SDS011;1940;51.052;13.678;2023-11-21T03:43:28;5.40;;;2.37;;
3849;SDS011;1940;51.052;13.678;2023-11-21T03:45:55;5.10;;;2.30;;
3849;SDS011;1940;51.052;13.678;2023-11-21T03:48:20;4.90;;;2.03;;
3849;SDS011;1940;51.052;13.678;2023-11-21T03:50:46;5.93;;;2.07;;
3849;SDS011;1940;51.052;13.678;2023-11-21T03:53:12;2.80;;;1.77;;
3849;SDS011;1940;51.052;13.678;2023-11-21T03:55:37;4.77;;;2.30;;
3849;SDS011;1940;51.052;13.678;2023-11-21T03:58:03;3.10;;;1.97;;
3849;SDS011;1940;51.052;13.678;2023-11-21T04:00:28;4.67;;;2.13;;
3849;SDS011;1940;51.052;13.678;2023-11-21T04:02:54;3.83;;;2.13;;
3849;SDS011;1940;51.052;13.678;2023-11-21T04:05:20;6.57;;;2.10;;
3849;SDS011;1940;51.052;13.678;2023-11-21T04:07:47;2.80;;;2.00;;
3849;SDS011;1940;51.052;13.678;2023-11-21T04:10:14;4.50;;;1.93;;
3849;SDS011;1940;51.052;13.678;2023-11-21T04:12:40;4.30;;;2.00;;
3849;SDS011;1940;51.052;13.678;2023-11-21T04:15:06;4.77;;;2.20;;
3849;SDS011;1940;51.052;13.678;2023-11-21T04:17:33;7.73;;;2.90;;
3849;SDS011;1940;51.052;13.678;2023-11-21T04:20:00;5.00;;;2.10;;
3849;SDS011;1940;51.052;13.678;2023-11-21T04:22:25;3.60;;;2.10;;
3849;SDS011;1940;51.052;13.678;2023-11-21T04:24:51;12.10;;;2.13;;
3849;SDS011;1940;51.052;13.678;2023-11-21T04:27:16;4.33;;;2.93;;
3849;SDS011;1940;51.052;13.678;2023-11-21T04:29:45;4.70;;;2.60;;
3849;SDS011;1940;51.052;13.678;2023-11-21T04:32:10;5.07;;;2.87;;
3849;SDS011;1940;51.052;13.678;2023-11-21T04:34:37;4.93;;;2.30;;
3849;SDS011;1940;51.052;13.678;2023-11-21T04:37:03;5.30;;;2.50;;
3849;SDS011;1940;51.052;13.678;2023-11-21T04:39:31;4.93;;;2.53;;
3849;SDS011;1940;51.052;13.678;2023-11-21T04:41:56;5.13;;;2.80;;
3849;SDS011;1940;51.052;13.678;2023-11-21T04:44:22;7.03;;;2.37;;
3849;SDS011;1940;51.052;13.678;2023-11-21T04:46:47;6.60;;;2.80;;
3849;SDS011;1940;51.052;13.678;2023-11-21T04:49:13;8.47;;;4.00;;
3849;SDS011;1940;51.052;13.678;2023-11-21T04:51:39;6.80;;;2.53;;
3849;SDS011;1940;51.052;13.678;2023-11-21T04:54:04;5.93;;;2.80;;
3849;SDS011;1940;51.052;13.678;2023-11-21T04:56:30;6.87;;;2.80;;
3849;SDS011;1940;51.052;13.678;2023-11-21T04:58:56;7.70;;;3.10;;
3849;SDS011;1940;51.052;13.678;2023-11-21T05:01:21;8.20;;;2.40;;
3849;SDS011;1940;51.052;13.678;2023-11-21T05:03:47;7.30;;;3.07;;
3849;SDS011;1940;51.052;13.678;2023-11-21T05:06:13;6.93;;;2.60;;
3849;SDS011;1940;51.052;13.678;2023-11-21T05:08:39;4.57;;;2.60;;
3849;SDS011;1940;51.052;13.678;2023-11-21T05:11:05;7.00;;;3.00;;
3849;SDS011;1940;51.052;13.678;2023-11-21T05:13:33;5.80;;;2.73;;
3849;SDS011;1940;51.052;13.678;2023-11-21T05:15:59;7.73;;;2.67;;
3849;SDS011;1940;51.052;13.678;2023-11-21T05:18:25;7.73;;;3.00;;
3849;SDS011;1940;51.052;13.678;2023-11-21T05:20:54;7.83;;;3.20;;
3849;SDS011;1940;51.052;13.678;2023-11-21T05:23:20;5.40;;;2.77;;
3849;SDS011;1940;51.052;13.678;2023-11-21T05:25:46;8.40;;;2.70;;
3849;SDS011;1940;51.052;13.678;2023-11-21T05:28:12;8.40;;;2.90;;
3849;SDS011;1940;51.052;13.678;2023-11-21T05:30:37;7.17;;;3.10;;
3849;SDS011;1940;51.052;13.678;2023-11-21T05:33:06;6.17;;;3.20;;
3849;SDS011;1940;51.052;13.678;2023-11-21T05:35:32;7.93;;;2.83;;
3849;SDS011;1940;51.052;13.678;2023-11-21T05:37:57;5.90;;;3.50;;
3849;SDS011;1940;51.052;13.678;2023-11-21T05:40:23;4.30;;;2.50;;
3849;SDS011;1940;51.052;13.678;2023-11-21T05:42:48;7.83;;;2.93;;
3849;SDS011;1940;51.052;13.678;2023-11-21T05:45:16;5.97;;;2.67;;
3849;SDS011;1940;51.052;13.678;2023-11-21T05:47:44;6.07;;;2.83;;
3849;SDS011;1940;51.052;13.678;2023-11-21T05:50:11;9.23;;;3.50;;
3849;SDS011;1940;51.052;13.678;2023-11-21T05:52:39;9.67;;;3.23;;
3849;SDS011;1940;51.052;13.678;2023-11-21T05:55:05;5.80;;;3.00;;
3849;SDS011;1940;51.052;13.678;2023-11-21T05:57:34;8.77;;;3.00;;
3849;SDS011;1940;51.052;13.678;2023-11-21T06:00:02;6.23;;;2.77;;
3849;SDS011;1940;51.052;13.678;2023-11-21T06:02:35;5.67;;;2.90;;
3849;SDS011;1940;51.052;13.678;2023-11-21T06:05:00;10.63;;;3.23;;
3849;SDS011;1940;51.052;13.678;2023-11-21T06:07:26;7.10;;;3.27;;
3849;SDS011;1940;51.052;13.678;2023-11-21T06:09:51;7.20;;;3.07;;
3849;SDS011;1940;51.052;13.678;2023-11-21T06:12:17;6.30;;;3.23;;
3849;SDS011;1940;51.052;13.678;2023-11-21T06:14:42;7.30;;;2.90;;
3849;SDS011;1940;51.052;13.678;2023-11-21T06:17:08;5.03;;;3.20;;
3849;SDS011;1940;51.052;13.678;2023-11-21T06:19:34;7.87;;;3.43;;
3849;SDS011;1940;51.052;13.678;2023-11-21T06:22:00;7.87;;;3.10;;
3849;SDS011;1940;51.052;13.678;2023-11-21T06:24:26;7.73;;;3.10;;
3849;SDS011;1940;51.052;13.678;2023-11-21T06:26:53;7.73;;;3.20;;
3849;SDS011;1940;51.052;13.678;2023-11-21T06:29:18;11.83;;;3.50;;
3849;SDS011;1940;51.052;13.678;2023-11-21T06:31:44;6.77;;;3.20;;
3849;SDS011;1940;51.052;13.678;2023-11-21T06:34:11;5.70;;;3.40;;
3849;SDS011;1940;51.052;13.678;2023-11-21T06:36:37;12.90;;;3.70;;
3849;SDS011;1940;51.052;13.678;2023-11-21T06:39:02;8.63;;;3.33;;
3849;SDS011;1940;51.052;13.678;2023-11-21T06:41:33;6.77;;;3.00;;
3849;SDS011;1940;51.052;13.678;2023-11-21T06:43:59;6.90;;;2.90;;
3849;SDS011;1940;51.052;13.678;2023-11-21T06:46:25;7.43;;;3.20;;
3849;SDS011;1940;51.052;13.678;2023-11-21T06:48:50;6.83;;;3.60;;
3849;SDS011;1940;51.052;13.678;2023-11-21T06:51:16;6.83;;;3.47;;
3849;SDS011;1940;51.052;13.678;2023-11-21T06:53:41;6.27;;;2.90;;
3849;SDS011;1940;51.052;13.678;2023-11-21T06:56:17;7.70;;;3.53;;
3849;SDS011;1940;51.052;13.678;2023-11-21T06:58:44;6.73;;;3.27;;
3849;SDS011;1940;51.052;13.678;2023-11-21T07:01:11;8.77;;;3.30;;
3849;SDS011;1940;51.052;13.678;2023-11-21T07:03:38;11.50;;;3.80;;
3849;SDS011;1940;51.052;13.678;2023-11-21T07:06:03;11.23;;;4.13;;
3849;SDS011;1940;51.052;13.678;2023-11-21T07:08:29;13.97;;;4.10;;
3849;SDS011;1940;51.052;13.678;2023-11-21T07:10:55;11.70;;;4.00;;
3849;SDS011;1940;51.052;13.678;2023-11-21T07:13:20;7.50;;;3.60;;
3849;SDS011;1940;51.052;13.678;2023-11-21T07:15:46;9.30;;;3.90;;
3849;SDS011;1940;51.052;13.678;2023-11-21T07:18:13;8.73;;;3.90;;
3849;SDS011;1940;51.052;13.678;2023-11-21T07:20:38;9.30;;;3.80;;
3849;SDS011;1940;51.052;13.678;2023-11-21T07:23:04;8.10;;;4.13;;
3849;SDS011;1940;51.052;13.678;2023-11-21T07:25:30;8.87;;;3.60;;
3849;SDS011;1940;51.052;13.678;2023-11-21T07:27:56;12.80;;;5.13;;
3849;SDS011;1940;51.052;13.678;2023-11-21T07:30:22;6.90;;;3.93;;
3849;SDS011;1940;51.052;13.678;2023-11-21T07:32:48;9.43;;;4.10;;
3849;SDS011;1940;51.052;13.678;2023-11-21T07:35:14;16.97;;;5.00;;
3849;SDS011;1940;51.052;13.678;2023-11-21T07:37:39;10.10;;;5.00;;
3849;SDS011;1940;51.052;13.678;2023-11-21T07:40:05;8.73;;;4.30;;
3849;SDS011;1940;51.052;13.678;2023-11-21T07:42:33;11.70;;;4.43;;
3849;SDS011;1940;51.052;13.678;2023-11-21T07:44:59;10.87;;;5.10;;
3849;SDS011;1940;51.052;13.678;2023-11-21T07:47:25;10.67;;;4.47;;
3849;SDS011;1940;51.052;13.678;2023-11-21T07:49:52;11.03;;;5.80;;
3849;SDS011;1940;51.052;13.678;2023-11-21T07:52:18;16.03;;;5.10;;
3849;SDS011;1940;51.052;13.678;2023-11-21T07:54:46;12.40;;;4.97;;
3849;SDS011;1940;51.052;13.678;2023-11-21T07:57:11;12.80;;;4.83;;
3849;SDS011;1940;51.052;13.678;2023-11-21T07:59:38;10.57;;;4.50;;
3849;SDS011;1940;51.052;13.678;2023-11-21T08:02:07;14.17;;;5.20;;
3849;SDS011;1940;51.052;13.678;2023-11-21T08:04:32;14.73;;;6.00;;
3849;SDS011;1940;51.052;13.678;2023-11-21T08:06:59;9.77;;;5.30;;
3849;SDS011;1940;51.052;13.678;2023-11-21T08:09:24;11.10;;;5.13;;
3849;SDS011;1940;51.052;13.678;2023-11-21T08:11:50;14.50;;;6.60;;
3849;SDS011;1940;51.052;13.678;2023-11-21T08:14:17;18.13;;;6.97;;
3849;SDS011;1940;51.052;13.678;2023-11-21T08:16:43;11.97;;;6.37;;
3849;SDS011;1940;51.052;13.678;2023-11-21T08:19:09;22.97;;;5.87;;
3849;SDS011;1940;51.052;13.678;2023-11-21T08:21:36;16.70;;;6.03;;
3849;SDS011;1940;51.052;13.678;2023-11-21T08:24:04;16.43;;;6.77;;
3849;SDS011;1940;51.052;13.678;2023-11-21T08:26:30;16.97;;;7.23;;
3849;SDS011;1940;51.052;13.678;2023-11-21T08:28:55;15.97;;;6.87;;
3849;SDS011;1940;51.052;13.678;2023-11-21T08:31:25;11.90;;;6.13;;
3849;SDS011;1940;51.052;13.678;2023-11-21T08:33:51;15.13;;;6.50;;
3849;SDS011;1940;51.052;13.678;2023-11-21T08:36:16;12.87;;;6.30;;
3849;SDS011;1940;51.052;13.678;2023-11-21T08:38:42;17.20;;;6.63;;
3849;SDS011;1940;51.052;13.678;2023-11-21T08:41:07;12.83;;;6.23;;
3849;SDS011;1940;51.052;13.678;2023-11-21T08:43:36;15.60;;;5.73;;
3849;SDS011;1940;51.052;13.678;2023-11-21T08:46:05;18.17;;;6.53;;
3849;SDS011;1940;51.052;13.678;2023-11-21T08:48:31;13.07;;;5.33;;
3849;SDS011;1940;51.052;13.678;2023-11-21T08:50:57;12.13;;;5.10;;
3849;SDS011;1940;51.052;13.678;2023-11-21T08:53:22;12.97;;;5.63;;
3849;SDS011;1940;51.052;13.678;2023-11-21T08:55:48;15.00;;;5.40;;
3849;SDS011;1940;51.052;13.678;2023-11-21T08:58:14;9.33;;;4.47;;
3849;SDS011;1940;51.052;13.678;2023-11-21T09:00:40;9.50;;;4.70;;
3849;SDS011;1940;51.052;13.678;2023-11-21T09:03:06;9.30;;;4.57;;
3849;SDS011;1940;51.052;13.678;2023-11-21T09:05:33;9.10;;;4.87;;
3849;SDS011;1940;51.052;13.678;2023-11-21T09:08:02;9.70;;;4.27;;
3849;SDS011;1940;51.052;13.678;2023-11-21T09:10:27;12.80;;;4.97;;
3849;SDS011;1940;51.052;13.678;2023-11-21T09:12:53;7.83;;;4.20;;
3849;SDS011;1940;51.052;13.678;2023-11-21T09:15:18;8.57;;;5.37;;
3849;SDS011;1940;51.052;13.678;2023-11-21T09:17:45;8.50;;;4.47;;
3849;SDS011;1940;51.052;13.678;2023-11-21T09:20:11;6.47;;;3.97;;
3849;SDS011;1940;51.052;13.678;2023-11-21T09:22:36;9.47;;;4.67;;
3849;SDS011;1940;51.052;13.678;2023-11-21T09:25:02;9.00;;;4.90;;
3849;SDS011;1940;51.052;13.678;2023-11-21T09:27:30;7.77;;;4.97;;
3849;SDS011;1940;51.052;13.678;2023-11-21T09:29:56;7.97;;;4.40;;
3849;SDS011;1940;51.052;13.678;2023-11-21T09:32:23;6.87;;;4.27;;
3849;SDS011;1940;51.052;13.678;2023-11-21T09:34:49;9.27;;;4.33;;
3849;SDS011;1940;51.052;13.678;2023-11-21T09:37:15;6.60;;;3.70;;
3849;SDS011;1940;51.052;13.678;2023-11-21T09:39:41;5.60;;;3.80;;
3849;SDS011;1940;51.052;13.678;2023-11-21T09:42:15;6.63;;;3.97;;
3849;SDS011;1940;51.052;13.678;2023-11-21T09:45:00;10.50;;;4.27;;
3849;SDS011;1940;51.052;13.678;2023-11-21T09:47:30;7.50;;;4.30;;
3849;SDS011;1940;51.052;13.678;2023-11-21T09:50:01;5.43;;;3.30;;
3849;SDS011;1940;51.052;13.678;2023-11-21T09:52:27;4.60;;;2.93;;
3849;SDS011;1940;51.052;13.678;2023-11-21T09:54:54;4.23;;;3.10;;
3849;SDS011;1940;51.052;13.678;2023-11-21T09:57:23;5.57;;;3.80;;
3849;SDS011;1940;51.052;13.678;2023-11-21T09:59:50;6.03;;;3.50;;
3849;SDS011;1940;51.052;13.678;2023-11-21T10:02:20;8.80;;;4.63;;
3849;SDS011;1940;51.052;13.678;2023-11-21T10:04:47;9.60;;;5.20;;
3849;SDS011;1940;51.052;13.678;2023-11-21T10:07:13;11.53;;;6.23;;
3849;SDS011;1940;51.052;13.678;2023-11-21T10:09:41;15.20;;;6.73;;
3849;SDS011;1940;51.052;13.678;2023-11-21T10:12:07;10.00;;;6.00;;
3849;SDS011;1940;51.052;13.678;2023-11-21T10:14:35;10.43;;;6.00;;
3849;SDS011;1940;51.052;13.678;2023-11-21T10:17:06;13.80;;;7.37;;
3849;SDS011;1940;51.052;13.678;2023-11-21T10:19:33;17.20;;;8.10;;
3849;SDS011;1940;51.052;13.678;2023-11-21T10:22:01;12.83;;;7.03;;
3849;SDS011;1940;51.052;13.678;2023-11-21T10:24:27;16.90;;;8.10;;
3849;SDS011;1940;51.052;13.678;2023-11-21T10:26:52;17.10;;;8.00;;
3849;SDS011;1940;51.052;13.678;2023-11-21T10:29:18;21.03;;;8.80;;
3849;SDS011;1940;51.052;13.678;2023-11-21T10:31:48;14.80;;;8.23;;
3849;SDS011;1940;51.052;13.678;2023-11-21T10:34:15;17.43;;;8.60;;
3849;SDS011;1940;51.052;13.678;2023-11-21T10:36:42;14.13;;;7.00;;
3849;SDS011;1940;51.052;13.678;2023-11-21T10:39:08;16.70;;;7.40;;
3849;SDS011;1940;51.052;13.678;2023-11-21T10:41:35;15.20;;;6.97;;
3849;SDS011;1940;51.052;13.678;2023-11-21T10:44:00;16.73;;;7.90;;
3849;SDS011;1940;51.052;13.678;2023-11-21T10:46:29;20.80;;;7.70;;
3849;SDS011;1940;51.052;13.678;2023-11-21T10:48:55;19.07;;;8.10;;
3849;SDS011;1940;51.052;13.678;2023-11-21T10:51:21;19.03;;;8.33;;
3849;SDS011;1940;51.052;13.678;2023-11-21T10:53:49;19.07;;;7.47;;
3849;SDS011;1940;51.052;13.678;2023-11-21T10:56:16;12.90;;;6.57;;
3849;SDS011;1940;51.052;13.678;2023-11-21T10:58:45;12.97;;;6.87;;
3849;SDS011;1940;51.052;13.678;2023-11-21T11:01:10;10.73;;;6.00;;
3849;SDS011;1940;51.052;13.678;2023-11-21T11:03:39;15.13;;;6.00;;
3849;SDS011;1940;51.052;13.678;2023-11-21T11:06:06;11.70;;;6.37;;
3849;SDS011;1940;51.052;13.678;2023-11-21T11:08:36;14.20;;;5.70;;
3849;SDS011;1940;51.052;13.678;2023-11-21T11:11:02;9.97;;;5.77;;
3849;SDS011;1940;51.052;13.678;2023-11-21T11:13:29;11.77;;;5.77;;
3849;SDS011;1940;51.052;13.678;2023-11-21T11:15:57;9.40;;;5.60;;
3849;SDS011;1940;51.052;13.678;2023-11-21T11:18:25;11.40;;;5.00;;
3849;SDS011;1940;51.052;13.678;2023-11-21T11:20:51;9.80;;;5.43;;
3849;SDS011;1940;51.052;13.678;2023-11-21T11:23:29;10.53;;;5.97;;
3849;SDS011;1940;51.052;13.678;2023-11-21T11:34:34;12.67;;;6.53;;
3849;SDS011;1940;51.052;13.678;2023-11-21T11:37:07;8.03;;;5.37;;
3849;SDS011;1940;51.052;13.678;2023-11-21T11:39:36;9.10;;;5.47;;
3849;SDS011;1940;51.052;13.678;2023-11-21T11:42:18;10.07;;;5.60;;
3849;SDS011;1940;51.052;13.678;2023-11-21T11:47:23;10.83;;;5.80;;
3849;SDS011;1940;51.052;13.678;2023-11-21T11:55:05;10.20;;;5.70;;
3849;SDS011;1940;51.052;13.678;2023-11-21T11:57:32;12.70;;;6.90;;
3849;SDS011;1940;51.052;13.678;2023-11-21T12:02:46;11.13;;;6.43;;
3849;SDS011;1940;51.052;13.678;2023-11-21T12:05:14;11.70;;;6.47;;
3849;SDS011;1940;51.052;13.678;2023-11-21T12:07:41;12.13;;;6.70;;
3849;SDS011;1940;51.052;13.678;2023-11-21T12:10:23;11.83;;;7.00;;
3849;SDS011;1940;51.052;13.678;2023-11-21T12:15:20;14.90;;;7.53;;
3849;SDS011;1940;51.052;13.678;2023-11-21T12:17:46;12.37;;;6.60;;
3849;SDS011;1940;51.052;13.678;2023-11-21T12:20:14;11.40;;;6.80;;
3849;SDS011;1940;51.052;13.678;2023-11-21T12:22:43;16.50;;;6.80;;
3849;SDS011;1940;51.052;13.678;2023-11-21T12:25:12;11.00;;;6.47;;
3849;SDS011;1940;51.052;13.678;2023-11-21T12:27:41;14.13;;;6.90;;
3849;SDS011;1940;51.052;13.678;2023-11-21T12:30:08;15.50;;;7.53;;
3849;SDS011;1940;51.052;13.678;2023-11-21T12:32:38;14.90;;;7.10;;
3849;SDS011;1940;51.052;13.678;2023-11-21T12:35:05;13.17;;;7.20;;
3849;SDS011;1940;51.052;13.678;2023-11-21T12:37:31;13.30;;;7.57;;
3849;SDS011;1940;51.052;13.678;2023-11-21T12:39:57;16.00;;;8.00;;
3849;SDS011;1940;51.052;13.678;2023-11-21T12:42:23;13.97;;;7.37;;
3849;SDS011;1940;51.052;13.678;2023-11-21T12:45:05;16.50;;;8.20;;
3849;SDS011;1940;51.052;13.678;2023-11-21T12:50:26;20.47;;;9.00;;
3849;SDS011;1940;51.052;13.678;2023-11-21T12:53:00;13.90;;;7.57;;
3849;SDS011;1940;51.052;13.678;2023-11-21T12:55:29;12.70;;;7.07;;
3849;SDS011;1940;51.052;13.678;2023-11-21T12:57:57;13.60;;;7.03;;
3849;SDS011;1940;51.052;13.678;2023-11-21T13:00:32;12.87;;;7.17;;
3849;SDS011;1940;51.052;13.678;2023-11-21T13:03:02;14.70;;;7.87;;
3849;SDS011;1940;51.052;13.678;2023-11-21T13:05:30;14.97;;;8.20;;
3849;SDS011;1940;51.052;13.678;2023-11-21T13:08:00;18.83;;;8.47;;
3849;SDS011;1940;51.052;13.678;2023-11-21T13:10:28;13.30;;;7.63;;
3849;SDS011;1940;51.052;13.678;2023-11-21T13:12:59;13.17;;;6.77;;
3849;SDS011;1940;51.052;13.678;2023-11-21T13:15:26;14.10;;;7.50;;
3849;SDS011;1940;51.052;13.678;2023-11-21T13:17:52;15.83;;;7.73;;
3849;SDS011;1940;51.052;13.678;2023-11-21T13:20:18;13.70;;;7.13;;
3849;SDS011;1940;51.052;13.678;2023-11-21T13:23:07;12.73;;;7.27;;
3849;SDS011;1940;51.052;13.678;2023-11-21T13:25:36;13.77;;;8.00;;
3849;SDS011;1940;51.052;13.678;2023-11-21T13:28:08;14.70;;;7.60;;
3849;SDS011;1940;51.052;13.678;2023-11-21T13:30:36;14.47;;;8.00;;
3849;SDS011;1940;51.052;13.678;2023-11-21T13:33:04;15.53;;;8.33;;
3849;SDS011;1940;51.052;13.678;2023-11-21T13:35:33;15.20;;;8.20;;
3849;SDS011;1940;51.052;13.678;2023-11-21T13:38:06;18.23;;;8.47;;
3849;SDS011;1940;51.052;13.678;2023-11-21T13:40:32;18.63;;;8.63;;
3849;SDS011;1940;51.052;13.678;2023-11-21T13:43:04;19.27;;;8.57;;
3849;SDS011;1940;51.052;13.678;2023-11-21T13:45:30;16.57;;;8.30;;
3849;SDS011;1940;51.052;13.678;2023-11-21T13:47:56;16.33;;;8.27;;
3849;SDS011;1940;51.052;13.678;2023-11-21T13:50:25;17.90;;;8.97;;
3849;SDS011;1940;51.052;13.678;2023-11-21T13:52:58;17.30;;;9.63;;
3849;SDS011;1940;51.052;13.678;2023-11-21T13:55:47;17.23;;;8.60;;
3849;SDS011;1940;51.052;13.678;2023-11-21T13:58:14;18.03;;;8.50;;
3849;SDS011;1940;51.052;13.678;2023-11-21T14:00:47;15.90;;;8.20;;
3849;SDS011;1940;51.052;13.678;2023-11-21T14:03:21;22.83;;;8.50;;
3849;SDS011;1940;51.052;13.678;2023-11-21T14:05:48;14.67;;;8.07;;
3849;SDS011;1940;51.052;13.678;2023-11-21T14:08:18;14.57;;;7.37;;
3849;SDS011;1940;51.052;13.678;2023-11-21T14:10:46;12.30;;;6.80;;
3849;SDS011;1940;51.052;13.678;2023-11-21T14:13:22;14.33;;;6.60;;
3849;SDS011;1940;51.052;13.678;2023-11-21T14:15:52;12.00;;;6.53;;
3849;SDS011;1940;51.052;13.678;2023-11-21T14:18:24;12.67;;;6.50;;
3849;SDS011;1940;51.052;13.678;2023-11-21T14:20:59;14.93;;;7.63;;
3849;SDS011;1940;51.052;13.678;2023-11-21T14:23:24;13.77;;;7.17;;
3849;SDS011;1940;51.052;13.678;2023-11-21T14:25:50;17.03;;;7.90;;
3849;SDS011;1940;51.052;13.678;2023-11-21T14:28:16;19.10;;;8.17;;
3849;SDS011;1940;51.052;13.678;2023-11-21T14:30:43;19.73;;;8.40;;
3849;SDS011;1940;51.052;13.678;2023-11-21T14:33:11;12.03;;;6.00;;
3849;SDS011;1940;51.052;13.678;2023-11-21T14:35:37;6.63;;;3.90;;
3849;SDS011;1940;51.052;13.678;2023-11-21T14:38:02;6.37;;;3.60;;
3849;SDS011;1940;51.052;13.678;2023-11-21T14:40:30;6.53;;;3.70;;
3849;SDS011;1940;51.052;13.678;2023-11-21T14:42:59;7.80;;;4.70;;
3849;SDS011;1940;51.052;13.678;2023-11-21T14:45:25;11.37;;;5.40;;
3849;SDS011;1940;51.052;13.678;2023-11-21T14:47:52;8.77;;;5.03;;
3849;SDS011;1940;51.052;13.678;2023-11-21T14:50:36;14.50;;;5.47;;
3849;SDS011;1940;51.052;13.678;2023-11-21T14:53:04;11.63;;;5.67;;
3849;SDS011;1940;51.052;13.678;2023-11-21T14:55:31;9.90;;;5.63;;
3849;SDS011;1940;51.052;13.678;2023-11-21T14:58:12;16.27;;;6.40;;
3849;SDS011;1940;51.052;13.678;2023-11-21T15:00:40;9.63;;;5.50;;
3849;SDS011;1940;51.052;13.678;2023-11-21T15:03:09;9.73;;;5.53;;
3849;SDS011;1940;51.052;13.678;2023-11-21T15:05:46;9.87;;;5.90;;
3849;SDS011;1940;51.052;13.678;2023-11-21T15:08:13;10.90;;;5.70;;
3849;SDS011;1940;51.052;13.678;2023-11-21T15:10:48;12.83;;;6.70;;
3849;SDS011;1940;51.052;13.678;2023-11-21T15:13:18;15.20;;;6.60;;
3849;SDS011;1940;51.052;13.678;2023-11-21T15:15:45;14.50;;;7.50;;
3849;SDS011;1940;51.052;13.678;2023-11-21T15:18:11;14.83;;;6.10;;
3849;SDS011;1940;51.052;13.678;2023-11-21T15:20:37;18.00;;;7.90;;
3849;SDS011;1940;51.052;13.678;2023-11-21T15:23:07;13.43;;;6.30;;